sensor_id;sensor_type;location;lat;lon;timestamp;P1;durP1;ratioP1;P2;durP2;ratioP2
16854;SDS011;8543;54.522;18.550;2023-06-22T00:01:28;9.30;;;5.50;;
16854;SDS011;8543;54.522;18.550;2023-06-22T00:03:53;9.20;;;5.60;;
16854;SDS011;8543;54.522;18.550;2023-06-22T00:06:19;7.60;;;5.80;;
16854;SDS011;8543;54.522;18.550;2023-06-22T00:08:45;9.30;;;5.50;;
16854;SDS011;8543;54.522;18.550;2023-06-22T00:11:10;9.80;;;6.10;;
16854;SDS011;8543;54.522;18.550;2023-06-22T00:13:36;8.50;;;6.50;;
16854;SDS011;8543;54.522;18.550;2023-06-22T00:16:02;8.70;;;6.30;;
16854;SDS011;8543;54.522;18.550;2023-06-22T00:18:28;8.60;;;5.60;;
16854;SDS011;8543;54.522;18.550;2023-06-22T00:20:55;9.00;;;6.00;;
16854;SDS011;8543;54.522;18.550;2023-06-22T00:23:24;9.60;;;6.10;;
16854;SDS011;8543;54.522;18.550;2023-06-22T00:25:50;8.90;;;5.80;;
16854;SDS011;8543;54.522;18.550;2023-06-22T00:28:15;8.10;;;5.40;;
16854;SDS011;8543;54.522;18.550;2023-06-22T00:30:41;8.40;;;5.60;;
16854;SDS011;8543;54.522;18.550;2023-06-22T00:33:06;8.00;;;6.40;;
16854;SDS011;8543;54.522;18.550;2023-06-22T00:35:32;8.10;;;6.30;;
16854;SDS011;8543;54.522;18.550;2023-06-22T00:37:58;8.40;;;6.10;;
16854;SDS011;8543;54.522;18.550;2023-06-22T00:40:30;9.30;;;6.60;;
16854;SDS011;8543;54.522;18.550;2023-06-22T00:42:56;8.60;;;6.20;;
16854;SDS011;8543;54.522;18.550;2023-06-22T00:45:22;10.80;;;6.90;;
16854;SDS011;8543;54.522;18.550;2023-06-22T00:47:52;9.00;;;6.10;;
16854;SDS011;8543;54.522;18.550;2023-06-22T00:50:19;9.40;;;5.30;;
16854;SDS011;8543;54.522;18.550;2023-06-22T00:52:55;8.10;;;6.40;;
16854;SDS011;8543;54.522;18.550;2023-06-22T00:55:22;9.90;;;6.50;;
16854;SDS011;8543;54.522;18.550;2023-06-22T00:57:48;9.50;;;6.30;;
16854;SDS011;8543;54.522;18.550;2023-06-22T01:00:16;8.60;;;6.40;;
16854;SDS011;8543;54.522;18.550;2023-06-22T01:02:44;8.60;;;6.00;;
16854;SDS011;8543;54.522;18.550;2023-06-22T01:05:14;8.30;;;6.70;;
16854;SDS011;8543;54.522;18.550;2023-06-22T01:07:58;9.20;;;6.40;;
16854;SDS011;8543;54.522;18.550;2023-06-22T01:13:04;7.80;;;5.70;;
16854;SDS011;8543;54.522;18.550;2023-06-22T01:18:40;8.90;;;6.50;;
16854;SDS011;8543;54.522;18.550;2023-06-22T01:21:07;10.60;;;6.70;;
16854;SDS011;8543;54.522;18.550;2023-06-22T01:29:47;10.60;;;6.90;;
16854;SDS011;8543;54.522;18.550;2023-06-22T01:32:15;8.30;;;6.00;;
16854;SDS011;8543;54.522;18.550;2023-06-22T01:34:41;10.00;;;5.70;;
16854;SDS011;8543;54.522;18.550;2023-06-22T01:37:07;9.50;;;6.90;;
16854;SDS011;8543;54.522;18.550;2023-06-22T01:39:33;8.30;;;6.40;;
16854;SDS011;8543;54.522;18.550;2023-06-22T01:41:59;9.60;;;6.60;;
16854;SDS011;8543;54.522;18.550;2023-06-22T01:44:25;10.60;;;7.20;;
16854;SDS011;8543;54.522;18.550;2023-06-22T01:46:51;11.20;;;7.30;;
16854;SDS011;8543;54.522;18.550;2023-06-22T01:49:17;11.00;;;6.90;;
16854;SDS011;8543;54.522;18.550;2023-06-22T01:51:43;9.80;;;6.30;;
16854;SDS011;8543;54.522;18.550;2023-06-22T01:54:08;9.00;;;6.30;;
16854;SDS011;8543;54.522;18.550;2023-06-22T01:56:34;9.80;;;6.30;;
16854;SDS011;8543;54.522;18.550;2023-06-22T02:01:52;11.20;;;7.10;;
16854;SDS011;8543;54.522;18.550;2023-06-22T02:04:21;9.00;;;7.10;;
16854;SDS011;8543;54.522;18.550;2023-06-22T02:06:55;10.60;;;7.40;;
16854;SDS011;8543;54.522;18.550;2023-06-22T02:09:23;11.40;;;7.20;;
16854;SDS011;8543;54.522;18.550;2023-06-22T02:11:51;9.40;;;7.10;;
16854;SDS011;8543;54.522;18.550;2023-06-22T02:14:19;10.00;;;6.90;;
16854;SDS011;8543;54.522;18.550;2023-06-22T02:16:46;9.40;;;6.80;;
16854;SDS011;8543;54.522;18.550;2023-06-22T02:19:12;9.80;;;7.50;;
16854;SDS011;8543;54.522;18.550;2023-06-22T02:21:37;11.20;;;8.20;;
16854;SDS011;8543;54.522;18.550;2023-06-22T02:24:03;11.50;;;8.60;;
16854;SDS011;8543;54.522;18.550;2023-06-22T02:26:29;11.60;;;9.00;;
16854;SDS011;8543;54.522;18.550;2023-06-22T02:28:55;12.10;;;9.00;;
16854;SDS011;8543;54.522;18.550;2023-06-22T02:31:20;11.50;;;8.90;;
16854;SDS011;8543;54.522;18.550;2023-06-22T02:33:46;13.10;;;8.90;;
16854;SDS011;8543;54.522;18.550;2023-06-22T02:36:13;13.80;;;8.60;;
16854;SDS011;8543;54.522;18.550;2023-06-22T02:38:40;13.00;;;8.70;;
16854;SDS011;8543;54.522;18.550;2023-06-22T02:41:10;13.20;;;9.10;;
16854;SDS011;8543;54.522;18.550;2023-06-22T02:43:38;12.20;;;8.50;;
16854;SDS011;8543;54.522;18.550;2023-06-22T02:46:03;12.50;;;9.00;;
16854;SDS011;8543;54.522;18.550;2023-06-22T02:48:29;11.80;;;8.80;;
16854;SDS011;8543;54.522;18.550;2023-06-22T02:50:54;13.00;;;9.20;;
16854;SDS011;8543;54.522;18.550;2023-06-22T02:53:19;13.60;;;8.60;;
16854;SDS011;8543;54.522;18.550;2023-06-22T02:55:45;11.20;;;8.40;;
16854;SDS011;8543;54.522;18.550;2023-06-22T02:58:11;11.90;;;7.90;;
16854;SDS011;8543;54.522;18.550;2023-06-22T03:00:36;12.40;;;8.60;;
16854;SDS011;8543;54.522;18.550;2023-06-22T03:03:04;11.50;;;8.10;;
16854;SDS011;8543;54.522;18.550;2023-06-22T03:05:29;12.20;;;8.50;;
16854;SDS011;8543;54.522;18.550;2023-06-22T03:07:54;13.40;;;8.30;;
16854;SDS011;8543;54.522;18.550;2023-06-22T03:10:20;12.80;;;8.40;;
16854;SDS011;8543;54.522;18.550;2023-06-22T03:12:45;10.40;;;8.30;;
16854;SDS011;8543;54.522;18.550;2023-06-22T03:15:12;13.50;;;8.20;;
16854;SDS011;8543;54.522;18.550;2023-06-22T03:17:38;10.40;;;7.60;;
16854;SDS011;8543;54.522;18.550;2023-06-22T03:20:05;12.60;;;8.30;;
16854;SDS011;8543;54.522;18.550;2023-06-22T03:22:35;12.50;;;8.00;;
16854;SDS011;8543;54.522;18.550;2023-06-22T03:25:05;9.80;;;7.60;;
16854;SDS011;8543;54.522;18.550;2023-06-22T03:27:42;9.40;;;7.50;;
16854;SDS011;8543;54.522;18.550;2023-06-22T03:30:09;10.10;;;7.20;;
16854;SDS011;8543;54.522;18.550;2023-06-22T03:32:36;9.40;;;7.30;;
16854;SDS011;8543;54.522;18.550;2023-06-22T03:35:01;10.20;;;7.90;;
16854;SDS011;8543;54.522;18.550;2023-06-22T03:37:27;9.70;;;7.40;;
16854;SDS011;8543;54.522;18.550;2023-06-22T03:39:53;9.50;;;7.10;;
16854;SDS011;8543;54.522;18.550;2023-06-22T03:42:19;11.00;;;7.30;;
16854;SDS011;8543;54.522;18.550;2023-06-22T03:44:44;10.80;;;7.60;;
16854;SDS011;8543;54.522;18.550;2023-06-22T03:47:10;10.60;;;7.30;;
16854;SDS011;8543;54.522;18.550;2023-06-22T03:49:35;13.60;;;7.70;;
16854;SDS011;8543;54.522;18.550;2023-06-22T03:52:01;12.40;;;7.60;;
16854;SDS011;8543;54.522;18.550;2023-06-22T03:54:28;10.40;;;7.20;;
16854;SDS011;8543;54.522;18.550;2023-06-22T03:56:54;9.70;;;7.00;;
16854;SDS011;8543;54.522;18.550;2023-06-22T03:59:21;13.40;;;7.30;;
16854;SDS011;8543;54.522;18.550;2023-06-22T04:01:46;10.80;;;7.50;;
16854;SDS011;8543;54.522;18.550;2023-06-22T04:04:12;9.50;;;7.50;;
16854;SDS011;8543;54.522;18.550;2023-06-22T04:06:37;10.60;;;7.90;;
16854;SDS011;8543;54.522;18.550;2023-06-22T04:09:03;10.60;;;7.70;;
16854;SDS011;8543;54.522;18.550;2023-06-22T04:11:28;11.60;;;8.10;;
16854;SDS011;8543;54.522;18.550;2023-06-22T04:13:54;12.60;;;7.10;;
16854;SDS011;8543;54.522;18.550;2023-06-22T04:16:20;9.30;;;6.90;;
16854;SDS011;8543;54.522;18.550;2023-06-22T04:18:45;9.20;;;6.70;;
16854;SDS011;8543;54.522;18.550;2023-06-22T04:21:11;8.10;;;6.60;;
16854;SDS011;8543;54.522;18.550;2023-06-22T04:23:38;9.20;;;7.10;;
16854;SDS011;8543;54.522;18.550;2023-06-22T04:26:03;10.00;;;6.90;;
16854;SDS011;8543;54.522;18.550;2023-06-22T04:28:29;10.10;;;7.00;;
16854;SDS011;8543;54.522;18.550;2023-06-22T04:30:54;10.20;;;6.70;;
16854;SDS011;8543;54.522;18.550;2023-06-22T04:33:27;9.60;;;7.20;;
16854;SDS011;8543;54.522;18.550;2023-06-22T04:35:56;9.90;;;6.50;;
16854;SDS011;8543;54.522;18.550;2023-06-22T04:38:22;8.10;;;6.90;;
16854;SDS011;8543;54.522;18.550;2023-06-22T04:40:48;10.40;;;6.70;;
16854;SDS011;8543;54.522;18.550;2023-06-22T04:43:14;8.80;;;6.40;;
16854;SDS011;8543;54.522;18.550;2023-06-22T04:45:40;9.10;;;5.80;;
16854;SDS011;8543;54.522;18.550;2023-06-22T04:48:05;10.50;;;6.40;;
16854;SDS011;8543;54.522;18.550;2023-06-22T04:50:31;11.20;;;6.10;;
16854;SDS011;8543;54.522;18.550;2023-06-22T04:52:57;10.40;;;6.20;;
16854;SDS011;8543;54.522;18.550;2023-06-22T04:55:23;7.90;;;6.00;;
16854;SDS011;8543;54.522;18.550;2023-06-22T04:57:50;9.00;;;5.90;;
16854;SDS011;8543;54.522;18.550;2023-06-22T05:00:17;9.10;;;5.80;;
16854;SDS011;8543;54.522;18.550;2023-06-22T05:02:45;10.20;;;5.70;;
16854;SDS011;8543;54.522;18.550;2023-06-22T05:05:11;7.70;;;5.40;;
16854;SDS011;8543;54.522;18.550;2023-06-22T05:07:43;10.10;;;5.60;;
16854;SDS011;8543;54.522;18.550;2023-06-22T05:10:10;10.90;;;5.50;;
16854;SDS011;8543;54.522;18.550;2023-06-22T05:12:37;9.20;;;5.30;;
16854;SDS011;8543;54.522;18.550;2023-06-22T05:15:03;9.10;;;5.40;;
16854;SDS011;8543;54.522;18.550;2023-06-22T05:17:29;9.40;;;5.30;;
16854;SDS011;8543;54.522;18.550;2023-06-22T05:19:54;9.30;;;5.10;;
16854;SDS011;8543;54.522;18.550;2023-06-22T05:22:20;7.60;;;4.60;;
16854;SDS011;8543;54.522;18.550;2023-06-22T05:24:46;7.20;;;4.40;;
16854;SDS011;8543;54.522;18.550;2023-06-22T05:27:12;9.50;;;4.70;;
16854;SDS011;8543;54.522;18.550;2023-06-22T05:29:38;9.40;;;4.20;;
16854;SDS011;8543;54.522;18.550;2023-06-22T05:32:04;9.90;;;4.50;;
16854;SDS011;8543;54.522;18.550;2023-06-22T05:34:29;8.90;;;4.30;;
16854;SDS011;8543;54.522;18.550;2023-06-22T05:36:55;9.10;;;4.30;;
16854;SDS011;8543;54.522;18.550;2023-06-22T05:39:20;7.50;;;3.90;;
16854;SDS011;8543;54.522;18.550;2023-06-22T05:41:46;6.80;;;3.80;;
16854;SDS011;8543;54.522;18.550;2023-06-22T05:44:11;7.10;;;4.00;;
16854;SDS011;8543;54.522;18.550;2023-06-22T05:46:40;8.00;;;3.70;;
16854;SDS011;8543;54.522;18.550;2023-06-22T05:49:09;7.70;;;3.70;;
16854;SDS011;8543;54.522;18.550;2023-06-22T05:51:34;7.70;;;3.70;;
16854;SDS011;8543;54.522;18.550;2023-06-22T05:54:00;9.00;;;4.20;;
16854;SDS011;8543;54.522;18.550;2023-06-22T05:56:25;6.60;;;3.70;;
16854;SDS011;8543;54.522;18.550;2023-06-22T05:58:51;10.70;;;4.10;;
16854;SDS011;8543;54.522;18.550;2023-06-22T06:01:16;9.40;;;3.50;;
16854;SDS011;8543;54.522;18.550;2023-06-22T06:03:42;8.70;;;4.30;;
16854;SDS011;8543;54.522;18.550;2023-06-22T06:06:07;4.40;;;3.00;;
16854;SDS011;8543;54.522;18.550;2023-06-22T06:08:33;7.20;;;3.50;;
16854;SDS011;8543;54.522;18.550;2023-06-22T06:10:58;9.00;;;3.60;;
16854;SDS011;8543;54.522;18.550;2023-06-22T06:13:24;7.10;;;3.00;;
16854;SDS011;8543;54.522;18.550;2023-06-22T06:15:49;7.60;;;3.20;;
16854;SDS011;8543;54.522;18.550;2023-06-22T06:18:20;8.50;;;3.00;;
16854;SDS011;8543;54.522;18.550;2023-06-22T06:20:46;7.80;;;3.60;;
16854;SDS011;8543;54.522;18.550;2023-06-22T06:23:11;6.30;;;3.20;;
16854;SDS011;8543;54.522;18.550;2023-06-22T06:25:37;9.60;;;3.30;;
16854;SDS011;8543;54.522;18.550;2023-06-22T06:28:03;8.20;;;3.50;;
16854;SDS011;8543;54.522;18.550;2023-06-22T06:30:28;9.10;;;3.00;;
16854;SDS011;8543;54.522;18.550;2023-06-22T06:32:54;8.60;;;3.60;;
16854;SDS011;8543;54.522;18.550;2023-06-22T06:35:20;7.20;;;3.20;;
16854;SDS011;8543;54.522;18.550;2023-06-22T06:37:48;6.30;;;3.90;;
16854;SDS011;8543;54.522;18.550;2023-06-22T06:40:14;7.90;;;3.20;;
16854;SDS011;8543;54.522;18.550;2023-06-22T06:42:42;6.50;;;3.20;;
16854;SDS011;8543;54.522;18.550;2023-06-22T06:45:14;6.50;;;2.90;;
16854;SDS011;8543;54.522;18.550;2023-06-22T06:47:41;6.40;;;4.20;;
16854;SDS011;8543;54.522;18.550;2023-06-22T06:50:07;6.10;;;3.00;;
16854;SDS011;8543;54.522;18.550;2023-06-22T06:52:33;6.40;;;3.10;;
16854;SDS011;8543;54.522;18.550;2023-06-22T06:54:58;5.10;;;2.80;;
16854;SDS011;8543;54.522;18.550;2023-06-22T06:57:24;6.90;;;3.10;;
16854;SDS011;8543;54.522;18.550;2023-06-22T06:59:53;7.60;;;3.30;;
16854;SDS011;8543;54.522;18.550;2023-06-22T07:02:22;5.90;;;3.10;;
16854;SDS011;8543;54.522;18.550;2023-06-22T07:04:49;5.30;;;3.40;;
16854;SDS011;8543;54.522;18.550;2023-06-22T07:07:14;6.80;;;3.40;;
16854;SDS011;8543;54.522;18.550;2023-06-22T07:09:40;7.60;;;3.50;;
16854;SDS011;8543;54.522;18.550;2023-06-22T07:12:06;9.20;;;3.80;;
16854;SDS011;8543;54.522;18.550;2023-06-22T07:14:32;7.90;;;3.30;;
16854;SDS011;8543;54.522;18.550;2023-06-22T07:16:57;6.80;;;3.30;;
16854;SDS011;8543;54.522;18.550;2023-06-22T07:19:26;5.40;;;3.00;;
16854;SDS011;8543;54.522;18.550;2023-06-22T07:21:53;10.70;;;3.70;;
16854;SDS011;8543;54.522;18.550;2023-06-22T07:24:21;7.10;;;3.60;;
16854;SDS011;8543;54.522;18.550;2023-06-22T07:26:47;5.80;;;3.00;;
16854;SDS011;8543;54.522;18.550;2023-06-22T07:29:15;11.30;;;3.30;;
16854;SDS011;8543;54.522;18.550;2023-06-22T07:31:41;5.80;;;3.00;;
16854;SDS011;8543;54.522;18.550;2023-06-22T07:34:07;7.70;;;3.40;;
16854;SDS011;8543;54.522;18.550;2023-06-22T07:36:32;6.90;;;3.40;;
16854;SDS011;8543;54.522;18.550;2023-06-22T07:39:00;6.60;;;3.40;;
16854;SDS011;8543;54.522;18.550;2023-06-22T07:41:27;6.20;;;3.20;;
16854;SDS011;8543;54.522;18.550;2023-06-22T07:43:52;6.00;;;3.00;;
16854;SDS011;8543;54.522;18.550;2023-06-22T07:46:18;10.20;;;3.60;;
16854;SDS011;8543;54.522;18.550;2023-06-22T07:48:43;4.80;;;3.10;;
16854;SDS011;8543;54.522;18.550;2023-06-22T07:51:09;6.00;;;3.50;;
16854;SDS011;8543;54.522;18.550;2023-06-22T07:53:38;8.00;;;3.60;;
16854;SDS011;8543;54.522;18.550;2023-06-22T07:56:05;6.20;;;3.50;;
16854;SDS011;8543;54.522;18.550;2023-06-22T07:58:32;7.10;;;3.20;;
16854;SDS011;8543;54.522;18.550;2023-06-22T08:00:58;10.00;;;3.40;;
16854;SDS011;8543;54.522;18.550;2023-06-22T08:03:24;6.40;;;3.20;;
16854;SDS011;8543;54.522;18.550;2023-06-22T08:05:49;8.70;;;3.50;;
16854;SDS011;8543;54.522;18.550;2023-06-22T08:08:15;6.60;;;3.20;;
16854;SDS011;8543;54.522;18.550;2023-06-22T08:10:41;6.10;;;3.30;;
16854;SDS011;8543;54.522;18.550;2023-06-22T08:13:07;9.80;;;3.60;;
16854;SDS011;8543;54.522;18.550;2023-06-22T08:15:33;5.60;;;3.20;;
16854;SDS011;8543;54.522;18.550;2023-06-22T08:17:58;6.30;;;3.40;;
16854;SDS011;8543;54.522;18.550;2023-06-22T08:20:25;7.90;;;3.30;;
16854;SDS011;8543;54.522;18.550;2023-06-22T08:22:52;6.00;;;3.00;;
16854;SDS011;8543;54.522;18.550;2023-06-22T08:25:19;5.20;;;3.10;;
16854;SDS011;8543;54.522;18.550;2023-06-22T08:27:45;6.70;;;3.30;;
16854;SDS011;8543;54.522;18.550;2023-06-22T08:30:12;5.30;;;2.90;;
16854;SDS011;8543;54.522;18.550;2023-06-22T08:32:37;5.90;;;2.90;;
16854;SDS011;8543;54.522;18.550;2023-06-22T08:35:03;6.10;;;3.10;;
16854;SDS011;8543;54.522;18.550;2023-06-22T08:37:30;5.00;;;3.00;;
16854;SDS011;8543;54.522;18.550;2023-06-22T08:39:57;5.30;;;3.20;;
16854;SDS011;8543;54.522;18.550;2023-06-22T08:42:23;8.70;;;3.60;;
16854;SDS011;8543;54.522;18.550;2023-06-22T08:44:50;7.70;;;3.30;;
16854;SDS011;8543;54.522;18.550;2023-06-22T08:47:16;7.00;;;3.30;;
16854;SDS011;8543;54.522;18.550;2023-06-22T08:49:41;6.10;;;2.90;;
16854;SDS011;8543;54.522;18.550;2023-06-22T08:52:07;7.00;;;3.50;;
16854;SDS011;8543;54.522;18.550;2023-06-22T08:54:32;8.00;;;3.60;;
16854;SDS011;8543;54.522;18.550;2023-06-22T08:57:00;6.80;;;3.00;;
16854;SDS011;8543;54.522;18.550;2023-06-22T08:59:26;7.30;;;3.40;;
16854;SDS011;8543;54.522;18.550;2023-06-22T09:01:52;11.40;;;3.50;;
16854;SDS011;8543;54.522;18.550;2023-06-22T09:04:17;6.10;;;3.20;;
16854;SDS011;8543;54.522;18.550;2023-06-22T09:06:43;8.30;;;3.80;;
16854;SDS011;8543;54.522;18.550;2023-06-22T09:09:10;9.50;;;3.80;;
16854;SDS011;8543;54.522;18.550;2023-06-22T09:11:37;7.00;;;3.20;;
16854;SDS011;8543;54.522;18.550;2023-06-22T09:14:02;5.90;;;3.10;;
16854;SDS011;8543;54.522;18.550;2023-06-22T09:16:28;5.30;;;3.10;;
16854;SDS011;8543;54.522;18.550;2023-06-22T09:18:54;7.00;;;3.30;;
16854;SDS011;8543;54.522;18.550;2023-06-22T09:21:19;11.30;;;3.70;;
16854;SDS011;8543;54.522;18.550;2023-06-22T09:23:45;7.90;;;3.60;;
16854;SDS011;8543;54.522;18.550;2023-06-22T09:26:15;7.60;;;3.60;;
16854;SDS011;8543;54.522;18.550;2023-06-22T09:28:40;5.40;;;3.10;;
16854;SDS011;8543;54.522;18.550;2023-06-22T09:31:06;7.70;;;3.50;;
16854;SDS011;8543;54.522;18.550;2023-06-22T09:33:32;7.50;;;3.50;;
16854;SDS011;8543;54.522;18.550;2023-06-22T09:35:57;7.50;;;3.00;;
16854;SDS011;8543;54.522;18.550;2023-06-22T09:38:23;5.30;;;2.90;;
16854;SDS011;8543;54.522;18.550;2023-06-22T09:40:48;5.40;;;3.10;;
16854;SDS011;8543;54.522;18.550;2023-06-22T09:43:14;5.00;;;3.10;;
16854;SDS011;8543;54.522;18.550;2023-06-22T09:45:39;5.40;;;2.70;;
16854;SDS011;8543;54.522;18.550;2023-06-22T09:48:05;5.40;;;2.60;;
16854;SDS011;8543;54.522;18.550;2023-06-22T09:50:30;5.40;;;2.90;;
16854;SDS011;8543;54.522;18.550;2023-06-22T09:52:56;5.30;;;2.80;;
16854;SDS011;8543;54.522;18.550;2023-06-22T09:55:21;6.10;;;3.20;;
16854;SDS011;8543;54.522;18.550;2023-06-22T09:57:47;7.90;;;3.60;;
16854;SDS011;8543;54.522;18.550;2023-06-22T10:00:13;6.40;;;3.00;;
16854;SDS011;8543;54.522;18.550;2023-06-22T10:02:43;6.00;;;3.20;;
16854;SDS011;8543;54.522;18.550;2023-06-22T10:05:09;4.90;;;2.80;;
16854;SDS011;8543;54.522;18.550;2023-06-22T10:07:34;6.20;;;3.10;;
16854;SDS011;8543;54.522;18.550;2023-06-22T10:10:05;6.50;;;3.30;;
16854;SDS011;8543;54.522;18.550;2023-06-22T10:12:31;7.00;;;2.90;;
16854;SDS011;8543;54.522;18.550;2023-06-22T10:14:57;5.50;;;2.70;;
16854;SDS011;8543;54.522;18.550;2023-06-22T10:17:37;5.60;;;2.70;;
16854;SDS011;8543;54.522;18.550;2023-06-22T10:20:03;6.50;;;2.60;;
16854;SDS011;8543;54.522;18.550;2023-06-22T10:22:40;7.00;;;3.30;;
16854;SDS011;8543;54.522;18.550;2023-06-22T10:25:07;6.70;;;4.60;;
16854;SDS011;8543;54.522;18.550;2023-06-22T10:27:33;5.90;;;3.10;;
16854;SDS011;8543;54.522;18.550;2023-06-22T10:29:59;4.10;;;2.50;;
16854;SDS011;8543;54.522;18.550;2023-06-22T10:32:24;5.00;;;3.10;;
16854;SDS011;8543;54.522;18.550;2023-06-22T10:34:53;5.60;;;2.70;;
16854;SDS011;8543;54.522;18.550;2023-06-22T10:37:18;5.60;;;2.90;;
16854;SDS011;8543;54.522;18.550;2023-06-22T10:39:44;6.80;;;2.80;;
16854;SDS011;8543;54.522;18.550;2023-06-22T10:42:09;9.80;;;3.60;;
16854;SDS011;8543;54.522;18.550;2023-06-22T10:44:34;6.00;;;3.20;;
16854;SDS011;8543;54.522;18.550;2023-06-22T10:47:00;5.00;;;2.80;;
16854;SDS011;8543;54.522;18.550;2023-06-22T10:49:25;6.20;;;3.00;;
16854;SDS011;8543;54.522;18.550;2023-06-22T10:51:51;7.00;;;3.00;;
16854;SDS011;8543;54.522;18.550;2023-06-22T10:54:16;9.90;;;3.30;;
16854;SDS011;8543;54.522;18.550;2023-06-22T10:56:44;6.60;;;3.00;;
16854;SDS011;8543;54.522;18.550;2023-06-22T10:59:09;5.10;;;2.90;;
16854;SDS011;8543;54.522;18.550;2023-06-22T11:01:35;6.30;;;3.30;;
16854;SDS011;8543;54.522;18.550;2023-06-22T11:04:02;6.30;;;2.90;;
16854;SDS011;8543;54.522;18.550;2023-06-22T11:06:28;6.10;;;3.10;;
16854;SDS011;8543;54.522;18.550;2023-06-22T11:08:53;8.60;;;3.20;;
16854;SDS011;8543;54.522;18.550;2023-06-22T11:11:19;6.30;;;3.10;;
16854;SDS011;8543;54.522;18.550;2023-06-22T11:13:44;5.60;;;2.80;;
16854;SDS011;8543;54.522;18.550;2023-06-22T11:16:10;6.00;;;2.50;;
16854;SDS011;8543;54.522;18.550;2023-06-22T11:18:35;6.00;;;2.50;;
16854;SDS011;8543;54.522;18.550;2023-06-22T11:21:01;4.40;;;2.40;;
16854;SDS011;8543;54.522;18.550;2023-06-22T11:23:26;5.90;;;2.80;;
16854;SDS011;8543;54.522;18.550;2023-06-22T11:25:53;4.80;;;2.70;;
16854;SDS011;8543;54.522;18.550;2023-06-22T11:28:19;4.30;;;2.80;;
16854;SDS011;8543;54.522;18.550;2023-06-22T11:30:45;6.30;;;2.90;;
16854;SDS011;8543;54.522;18.550;2023-06-22T11:33:11;4.80;;;2.70;;
16854;SDS011;8543;54.522;18.550;2023-06-22T11:35:37;8.60;;;2.80;;
16854;SDS011;8543;54.522;18.550;2023-06-22T11:38:02;7.30;;;2.90;;
16854;SDS011;8543;54.522;18.550;2023-06-22T11:40:29;8.40;;;2.80;;
16854;SDS011;8543;54.522;18.550;2023-06-22T11:42:54;7.00;;;2.70;;
16854;SDS011;8543;54.522;18.550;2023-06-22T11:45:20;4.40;;;3.00;;
16854;SDS011;8543;54.522;18.550;2023-06-22T11:47:46;8.10;;;3.90;;
16854;SDS011;8543;54.522;18.550;2023-06-22T11:50:11;9.50;;;4.20;;
16854;SDS011;8543;54.522;18.550;2023-06-22T11:52:37;4.30;;;2.80;;
16854;SDS011;8543;54.522;18.550;2023-06-22T11:55:03;5.60;;;3.00;;
16854;SDS011;8543;54.522;18.550;2023-06-22T11:57:30;5.80;;;3.10;;
16854;SDS011;8543;54.522;18.550;2023-06-22T11:59:58;5.30;;;2.70;;
16854;SDS011;8543;54.522;18.550;2023-06-22T12:02:23;6.10;;;3.50;;
16854;SDS011;8543;54.522;18.550;2023-06-22T12:04:49;5.00;;;2.80;;
16854;SDS011;8543;54.522;18.550;2023-06-22T12:07:17;8.70;;;2.90;;
16854;SDS011;8543;54.522;18.550;2023-06-22T12:09:43;7.80;;;3.40;;
16854;SDS011;8543;54.522;18.550;2023-06-22T12:12:09;6.10;;;3.30;;
16854;SDS011;8543;54.522;18.550;2023-06-22T12:14:35;7.40;;;3.30;;
16854;SDS011;8543;54.522;18.550;2023-06-22T12:17:00;5.90;;;3.00;;
16854;SDS011;8543;54.522;18.550;2023-06-22T12:19:26;8.70;;;3.50;;
16854;SDS011;8543;54.522;18.550;2023-06-22T12:21:51;7.50;;;3.50;;
16854;SDS011;8543;54.522;18.550;2023-06-22T12:24:17;6.00;;;2.90;;
16854;SDS011;8543;54.522;18.550;2023-06-22T12:26:42;6.20;;;3.40;;
16854;SDS011;8543;54.522;18.550;2023-06-22T12:29:08;6.80;;;3.20;;
16854;SDS011;8543;54.522;18.550;2023-06-22T12:31:34;6.30;;;3.10;;
16854;SDS011;8543;54.522;18.550;2023-06-22T12:34:00;8.40;;;3.30;;
16854;SDS011;8543;54.522;18.550;2023-06-22T12:36:26;5.40;;;2.90;;
16854;SDS011;8543;54.522;18.550;2023-06-22T12:38:51;6.10;;;3.00;;
16854;SDS011;8543;54.522;18.550;2023-06-22T12:41:17;5.20;;;3.10;;
16854;SDS011;8543;54.522;18.550;2023-06-22T12:43:42;5.10;;;3.10;;
16854;SDS011;8543;54.522;18.550;2023-06-22T12:46:08;5.40;;;3.00;;
16854;SDS011;8543;54.522;18.550;2023-06-22T12:48:33;5.30;;;3.00;;
16854;SDS011;8543;54.522;18.550;2023-06-22T12:50:59;5.70;;;3.10;;
16854;SDS011;8543;54.522;18.550;2023-06-22T12:53:24;7.20;;;3.40;;
16854;SDS011;8543;54.522;18.550;2023-06-22T12:55:52;6.20;;;3.30;;
16854;SDS011;8543;54.522;18.550;2023-06-22T12:58:17;5.80;;;3.10;;
16854;SDS011;8543;54.522;18.550;2023-06-22T13:00:43;5.50;;;3.00;;
16854;SDS011;8543;54.522;18.550;2023-06-22T13:03:08;5.20;;;3.10;;
16854;SDS011;8543;54.522;18.550;2023-06-22T13:05:34;6.80;;;3.40;;
16854;SDS011;8543;54.522;18.550;2023-06-22T13:08:01;4.40;;;3.00;;
16854;SDS011;8543;54.522;18.550;2023-06-22T13:10:26;5.60;;;3.70;;
16854;SDS011;8543;54.522;18.550;2023-06-22T13:12:52;7.00;;;3.50;;
16854;SDS011;8543;54.522;18.550;2023-06-22T13:15:25;5.70;;;3.90;;
16854;SDS011;8543;54.522;18.550;2023-06-22T13:17:53;5.80;;;3.40;;
16854;SDS011;8543;54.522;18.550;2023-06-22T13:20:18;6.20;;;3.20;;
16854;SDS011;8543;54.522;18.550;2023-06-22T13:22:46;5.60;;;3.30;;
16854;SDS011;8543;54.522;18.550;2023-06-22T13:25:12;5.80;;;3.40;;
16854;SDS011;8543;54.522;18.550;2023-06-22T13:27:41;5.50;;;3.20;;
16854;SDS011;8543;54.522;18.550;2023-06-22T13:30:08;7.10;;;3.30;;
16854;SDS011;8543;54.522;18.550;2023-06-22T13:32:34;6.30;;;3.50;;
16854;SDS011;8543;54.522;18.550;2023-06-22T13:34:59;5.30;;;3.20;;
16854;SDS011;8543;54.522;18.550;2023-06-22T13:37:25;5.60;;;3.30;;
16854;SDS011;8543;54.522;18.550;2023-06-22T13:39:51;5.90;;;3.70;;
16854;SDS011;8543;54.522;18.550;2023-06-22T13:42:16;6.80;;;3.60;;
16854;SDS011;8543;54.522;18.550;2023-06-22T13:44:42;7.30;;;3.80;;
16854;SDS011;8543;54.522;18.550;2023-06-22T13:47:07;6.20;;;3.60;;
16854;SDS011;8543;54.522;18.550;2023-06-22T13:49:33;6.90;;;4.00;;
16854;SDS011;8543;54.522;18.550;2023-06-22T13:51:58;5.70;;;3.70;;
16854;SDS011;8543;54.522;18.550;2023-06-22T13:54:24;6.80;;;4.00;;
16854;SDS011;8543;54.522;18.550;2023-06-22T13:56:50;8.40;;;3.80;;
16854;SDS011;8543;54.522;18.550;2023-06-22T13:59:15;6.80;;;3.70;;
16854;SDS011;8543;54.522;18.550;2023-06-22T14:01:41;7.80;;;4.00;;
16854;SDS011;8543;54.522;18.550;2023-06-22T14:04:08;6.50;;;3.60;;
16854;SDS011;8543;54.522;18.550;2023-06-22T14:06:33;5.60;;;3.50;;
16854;SDS011;8543;54.522;18.550;2023-06-22T14:08:59;6.70;;;3.90;;
16854;SDS011;8543;54.522;18.550;2023-06-22T14:11:24;7.90;;;3.90;;
16854;SDS011;8543;54.522;18.550;2023-06-22T14:13:50;5.60;;;4.00;;
16854;SDS011;8543;54.522;18.550;2023-06-22T14:16:16;5.70;;;3.40;;
16854;SDS011;8543;54.522;18.550;2023-06-22T14:18:41;6.90;;;3.90;;
16854;SDS011;8543;54.522;18.550;2023-06-22T14:21:07;6.80;;;3.60;;
16854;SDS011;8543;54.522;18.550;2023-06-22T14:23:33;7.30;;;3.70;;
16854;SDS011;8543;54.522;18.550;2023-06-22T14:25:58;6.70;;;3.40;;
16854;SDS011;8543;54.522;18.550;2023-06-22T14:28:23;5.70;;;3.90;;
16854;SDS011;8543;54.522;18.550;2023-06-22T14:30:49;6.10;;;3.90;;
16854;SDS011;8543;54.522;18.550;2023-06-22T14:33:14;9.10;;;4.20;;
16854;SDS011;8543;54.522;18.550;2023-06-22T14:35:40;5.10;;;3.60;;
16854;SDS011;8543;54.522;18.550;2023-06-22T14:38:06;7.00;;;4.10;;
16854;SDS011;8543;54.522;18.550;2023-06-22T14:40:31;6.00;;;4.00;;
16854;SDS011;8543;54.522;18.550;2023-06-22T14:42:57;6.80;;;4.20;;
16854;SDS011;8543;54.522;18.550;2023-06-22T14:45:23;5.40;;;3.90;;
16854;SDS011;8543;54.522;18.550;2023-06-22T14:47:48;5.80;;;3.50;;
16854;SDS011;8543;54.522;18.550;2023-06-22T14:50:14;5.90;;;4.00;;
16854;SDS011;8543;54.522;18.550;2023-06-22T14:52:40;7.00;;;3.80;;
16854;SDS011;8543;54.522;18.550;2023-06-22T14:55:05;5.40;;;3.70;;